createdAt,value
2023-01-15T00:02:18.068Z,4.15
2023-01-15T00:04:45.553Z,4.05
2023-01-15T00:07:12.707Z,4.12
2023-01-15T00:09:39.858Z,4.12
2023-01-15T00:12:07.463Z,4.13
2023-01-15T00:14:34.630Z,4.24
2023-01-15T00:17:01.753Z,4.27
2023-01-15T00:19:29.137Z,4.10
2023-01-15T00:21:56.362Z,4.17
2023-01-15T00:24:41.875Z,4.24
2023-01-15T00:27:29.710Z,4.35
2023-01-15T00:29:56.965Z,4.29
2023-01-15T00:32:27.745Z,4.19
2023-01-15T00:34:55.899Z,4.19
2023-01-15T00:37:23.069Z,4.16
2023-01-15T00:39:50.463Z,4.03
2023-01-15T00:42:18.021Z,4.05
2023-01-15T00:44:46.772Z,4.07
2023-01-15T00:47:15.219Z,4.03
2023-01-15T00:49:43.106Z,4.05
2023-01-15T00:52:11.179Z,3.93
2023-01-15T00:54:38.768Z,4.01
2023-01-15T00:57:05.895Z,3.93
2023-01-15T00:59:33.071Z,4.00
2023-01-15T01:02:00.609Z,4.15
2023-01-15T01:04:27.950Z,4.42
2023-01-15T01:06:55.593Z,4.33
2023-01-15T01:09:23.032Z,4.07
2023-01-15T01:11:50.316Z,3.96
2023-01-15T01:14:17.481Z,4.03
2023-01-15T01:16:45.036Z,4.04
2023-01-15T01:19:20.762Z,3.85
2023-01-15T01:21:49.043Z,3.84
2023-01-15T01:24:22.365Z,3.86
2023-01-15T01:26:53.402Z,3.90
2023-01-15T01:29:22.686Z,4.14
2023-01-15T01:31:51.171Z,3.84
2023-01-15T01:34:18.754Z,3.95
2023-01-15T01:36:46.164Z,4.05
2023-01-15T01:39:16.186Z,3.95
2023-01-15T01:41:44.131Z,3.95
2023-01-15T01:44:33.083Z,3.88
2023-01-15T01:47:01.972Z,3.70
2023-01-15T01:49:29.428Z,3.78
2023-01-15T01:51:59.846Z,3.78
2023-01-15T01:54:29.429Z,3.75
2023-01-15T01:56:56.660Z,3.82
2023-01-15T01:59:25.294Z,3.84
2023-01-15T02:01:53.603Z,3.75
2023-01-15T02:04:22.846Z,3.77
2023-01-15T02:06:51.256Z,3.80
2023-01-15T02:09:18.840Z,3.81
2023-01-15T02:11:46.457Z,3.75
2023-01-15T02:14:18.009Z,3.82
2023-01-15T02:17:01.398Z,3.75
2023-01-15T02:19:47.674Z,3.85
2023-01-15T02:22:14.740Z,3.81
2023-01-15T02:24:45.111Z,3.92
2023-01-15T02:27:16.181Z,3.92
2023-01-15T02:29:52.246Z,3.97
2023-01-15T02:32:31.661Z,3.98
2023-01-15T02:35:06.058Z,3.98
2023-01-15T02:37:36.833Z,3.91
2023-01-15T02:40:07.316Z,3.91
2023-01-15T02:42:36.730Z,3.95
2023-01-15T02:45:07.967Z,3.82
2023-01-15T02:47:38.745Z,3.74
2023-01-15T02:50:09.614Z,3.70
2023-01-15T02:52:42.638Z,3.83
2023-01-15T02:55:35.350Z,3.83
2023-01-15T02:58:06.665Z,3.69
2023-01-15T03:00:36.569Z,3.82
2023-01-15T03:03:42.323Z,3.81
2023-01-15T03:06:24.293Z,3.73
2023-01-15T03:08:52.095Z,3.69
2023-01-15T03:11:20.152Z,3.78
2023-01-15T03:13:51.939Z,3.81
2023-01-15T03:16:35.486Z,3.88
2023-01-15T03:19:24.516Z,4.05
2023-01-15T03:21:57.132Z,4.04
2023-01-15T03:24:29.439Z,3.98
2023-01-15T03:26:57.829Z,4.02
2023-01-15T03:29:29.477Z,3.98
2023-01-15T03:31:57.104Z,3.95
2023-01-15T03:34:32.395Z,4.00
2023-01-15T03:36:59.842Z,3.87
2023-01-15T03:39:28.254Z,3.93
2023-01-15T03:42:05.016Z,3.90
2023-01-15T03:44:47.887Z,4.02
2023-01-15T03:47:27.312Z,4.05
2023-01-15T03:50:18.519Z,4.08
2023-01-15T03:52:49.375Z,4.02
2023-01-15T03:55:22.950Z,4.02
2023-01-15T03:57:58.155Z,3.92
2023-01-15T04:00:27.807Z,3.84
2023-01-15T04:02:56.760Z,3.77
2023-01-15T04:05:26.893Z,3.58
2023-01-15T04:07:54.963Z,3.59
2023-01-15T04:10:22.971Z,3.91
2023-01-15T04:12:50.451Z,3.87
2023-01-15T04:15:19.216Z,3.88
2023-01-15T04:17:46.866Z,3.66
2023-01-15T04:20:14.607Z,3.77
2023-01-15T04:22:41.962Z,3.68
2023-01-15T04:25:09.979Z,3.63
2023-01-15T04:27:37.447Z,3.69
2023-01-15T04:30:04.949Z,3.87
2023-01-15T04:32:32.311Z,3.93
2023-01-15T04:35:01.037Z,3.95
2023-01-15T04:37:28.100Z,3.93
2023-01-15T04:39:55.576Z,3.91
2023-01-15T04:42:41.364Z,3.98
2023-01-15T04:45:09.405Z,3.99
2023-01-15T04:47:36.573Z,3.91
2023-01-15T04:50:03.805Z,4.02
2023-01-15T04:52:31.224Z,3.82
2023-01-15T04:54:58.349Z,3.98
2023-01-15T04:57:25.479Z,3.97
2023-01-15T04:59:52.902Z,4.06
2023-01-15T05:02:20.122Z,3.95
2023-01-15T05:04:47.384Z,4.09
2023-01-15T05:07:14.919Z,4.20
2023-01-15T05:09:42.033Z,4.10
2023-01-15T05:12:09.095Z,4.20
2023-01-15T05:14:36.434Z,4.36
2023-01-15T05:17:03.611Z,4.25
2023-01-15T05:19:30.778Z,4.21
2023-01-15T05:21:58.137Z,4.04
2023-01-15T05:24:25.259Z,4.13
2023-01-15T05:26:52.442Z,4.23
2023-01-15T05:29:19.898Z,4.26
2023-01-15T05:31:47.029Z,4.24
2023-01-15T05:34:14.235Z,4.23
2023-01-15T05:36:41.947Z,4.12
2023-01-15T05:39:09.112Z,4.18
2023-01-15T05:41:51.471Z,4.18
2023-01-15T05:44:24.471Z,4.25
2023-01-15T05:46:53.653Z,4.24
2023-01-15T05:49:23.958Z,4.29
2023-01-15T05:51:51.684Z,4.29
2023-01-15T05:54:21.575Z,4.20
2023-01-15T05:56:49.226Z,4.24
2023-01-15T05:59:18.222Z,4.28
2023-01-15T06:01:45.379Z,4.16
2023-01-15T06:04:21.458Z,4.15
2023-01-15T06:06:50.061Z,4.18
2023-01-15T06:09:18.104Z,4.23
2023-01-15T06:11:45.524Z,4.24
2023-01-15T06:14:12.736Z,4.19
2023-01-15T06:16:41.448Z,4.31
2023-01-15T06:19:09.716Z,4.39
2023-01-15T06:21:36.916Z,4.36
2023-01-15T06:24:04.727Z,4.45
2023-01-15T06:26:33.342Z,4.50
2023-01-15T06:29:00.537Z,4.41
2023-01-15T06:31:28.157Z,4.36
2023-01-15T06:33:55.599Z,4.30
2023-01-15T06:36:24.569Z,4.26
2023-01-15T06:38:52.096Z,4.46
2023-01-15T06:41:40.498Z,4.39
2023-01-15T06:44:34.198Z,4.40
2023-01-15T06:47:23.819Z,4.36
2023-01-15T06:49:55.619Z,4.53
2023-01-15T06:52:24.167Z,4.57
2023-01-15T06:54:52.627Z,4.51
2023-01-15T06:57:19.885Z,4.67
2023-01-15T06:59:48.471Z,4.62
2023-01-15T07:02:15.887Z,4.81
2023-01-15T07:04:43.000Z,4.68
2023-01-15T07:07:10.167Z,4.68
2023-01-15T07:09:37.586Z,4.80
2023-01-15T07:12:04.811Z,4.80
2023-01-15T07:14:33.157Z,4.93
2023-01-15T07:17:00.651Z,4.92
2023-01-15T07:19:27.867Z,4.77
2023-01-15T07:21:55.116Z,4.86
2023-01-15T07:24:22.589Z,4.80
2023-01-15T07:26:49.818Z,4.86
2023-01-15T07:29:17.181Z,4.99
2023-01-15T07:31:44.598Z,5.05
2023-01-15T07:34:11.793Z,5.05
2023-01-15T07:36:38.991Z,4.98
2023-01-15T07:39:08.157Z,4.98
2023-01-15T07:41:54.212Z,5.01
2023-01-15T07:44:41.321Z,5.13
2023-01-15T07:47:52.936Z,5.26
2023-01-15T07:50:22.541Z,5.25
2023-01-15T07:52:52.831Z,4.98
2023-01-15T07:55:21.061Z,5.09
2023-01-15T07:57:48.180Z,5.12
2023-01-15T08:00:20.992Z,5.19
2023-01-15T08:02:50.705Z,5.24
2023-01-15T08:05:18.371Z,5.25
2023-01-15T08:07:45.770Z,5.41
2023-01-15T08:10:14.109Z,5.49
2023-01-15T08:13:00.561Z,5.55
2023-01-15T08:15:39.073Z,5.57
2023-01-15T08:18:07.111Z,5.63
2023-01-15T08:20:36.379Z,5.69
2023-01-15T08:23:03.483Z,5.65
2023-01-15T08:25:30.672Z,5.55
2023-01-15T08:28:02.282Z,5.61
2023-01-15T08:30:29.551Z,5.59
2023-01-15T08:33:02.337Z,5.56
2023-01-15T08:35:29.787Z,5.58
2023-01-15T08:37:56.860Z,5.59
2023-01-15T08:40:24.005Z,5.69
2023-01-15T08:42:51.354Z,5.71
2023-01-15T08:45:18.446Z,5.83
2023-01-15T08:47:45.511Z,5.99
2023-01-15T08:50:12.957Z,6.15
2023-01-15T08:52:40.054Z,6.29
2023-01-15T08:55:07.795Z,6.17
2023-01-15T08:57:35.614Z,6.23
2023-01-15T09:00:02.717Z,6.18
2023-01-15T09:02:30.877Z,5.99
2023-01-15T09:04:58.351Z,6.06
2023-01-15T09:07:25.540Z,6.25
2023-01-15T09:09:52.643Z,6.17
2023-01-15T09:12:20.147Z,6.36
2023-01-15T09:14:57.655Z,6.38
2023-01-15T09:17:31.495Z,6.26
2023-01-15T09:19:58.644Z,6.39
2023-01-15T09:22:30.066Z,6.38
2023-01-15T09:24:57.907Z,6.38
2023-01-15T09:27:25.217Z,6.50
2023-01-15T09:29:52.381Z,6.45
2023-01-15T09:32:19.753Z,6.39
2023-01-15T09:34:46.834Z,6.44
2023-01-15T09:37:14.000Z,6.12
2023-01-15T09:39:41.377Z,6.03
2023-01-15T09:42:17.512Z,6.01
2023-01-15T09:44:52.786Z,6.12
2023-01-15T09:47:39.860Z,6.49
2023-01-15T09:50:41.096Z,6.51
2023-01-15T09:53:23.880Z,6.48
2023-01-15T09:55:52.713Z,6.39
2023-01-15T09:58:31.518Z,6.72
2023-01-15T10:00:59.819Z,6.95
2023-01-15T10:03:56.841Z,6.82
2023-01-15T10:06:29.679Z,6.98
2023-01-15T10:09:11.497Z,7.09
2023-01-15T10:12:01.808Z,7.10
2023-01-15T10:14:39.485Z,7.30
2023-01-15T10:17:18.271Z,6.85
2023-01-15T10:19:45.718Z,6.91
2023-01-15T10:22:45.835Z,6.82
2023-01-15T10:25:16.800Z,6.97
2023-01-15T10:27:48.754Z,7.14
2023-01-15T10:30:37.531Z,7.22
2023-01-15T10:33:22.147Z,7.26
2023-01-15T10:36:10.665Z,7.40
2023-01-15T10:39:00.118Z,7.21
2023-01-15T10:41:55.658Z,7.20
2023-01-15T10:45:01.534Z,7.23
2023-01-15T10:47:39.312Z,7.45
2023-01-15T10:50:17.255Z,7.50
2023-01-15T10:52:48.644Z,7.58
2023-01-15T10:55:25.152Z,7.70
2023-01-15T10:58:10.261Z,7.70
2023-01-15T11:00:39.008Z,7.55
2023-01-15T11:03:18.230Z,7.65
2023-01-15T11:05:48.882Z,7.72
2023-01-15T11:09:08.446Z,7.53
2023-01-15T11:11:59.538Z,7.49
2023-01-15T11:14:55.882Z,7.53
2023-01-15T11:17:44.805Z,7.53
2023-01-15T11:20:25.432Z,7.66
2023-01-15T11:22:53.079Z,7.68
2023-01-15T11:25:31.739Z,7.81
2023-01-15T11:28:01.631Z,7.93
2023-01-15T11:30:31.776Z,7.83
2023-01-15T11:33:06.502Z,7.80
2023-01-15T11:35:34.849Z,7.88
2023-01-15T11:38:06.776Z,7.90
2023-01-15T11:40:34.582Z,7.84
2023-01-15T11:43:20.331Z,7.80
2023-01-15T11:46:08.724Z,7.76
2023-01-15T11:49:05.779Z,7.91
2023-01-15T11:51:42.715Z,7.94
2023-01-15T11:54:12.900Z,8.11
2023-01-15T11:56:43.346Z,8.30
2023-01-15T11:59:12.872Z,8.38
2023-01-15T12:01:50.415Z,8.34
2023-01-15T12:04:37.435Z,8.22
2023-01-15T12:07:06.419Z,8.25
2023-01-15T12:09:39.848Z,8.29
2023-01-15T12:12:13.137Z,8.22
2023-01-15T12:14:49.684Z,8.35
2023-01-15T12:17:32.096Z,8.29
2023-01-15T12:20:46.889Z,8.33
2023-01-15T12:23:49.002Z,8.42
2023-01-15T12:26:26.636Z,8.49
2023-01-15T12:29:09.445Z,8.51
2023-01-15T12:31:47.033Z,8.60
2023-01-15T12:34:32.368Z,8.60
2023-01-15T12:37:06.655Z,8.59
2023-01-15T12:39:46.595Z,8.66
2023-01-15T12:42:36.173Z,8.69
2023-01-15T12:45:07.854Z,8.72
2023-01-15T12:47:45.903Z,8.79
2023-01-15T12:50:22.430Z,8.89
2023-01-15T12:52:54.528Z,8.79
2023-01-15T12:55:34.705Z,8.68
2023-01-15T12:58:03.211Z,8.79
2023-01-15T13:00:43.356Z,8.83
2023-01-15T13:03:55.852Z,8.71
2023-01-15T13:06:25.665Z,8.72
2023-01-15T13:09:02.864Z,8.80
2023-01-15T13:11:30.055Z,8.84
2023-01-15T13:14:00.119Z,8.90
2023-01-15T13:16:35.840Z,9.11
2023-01-15T13:19:09.301Z,9.22
2023-01-15T13:21:39.146Z,9.29
2023-01-15T13:24:37.726Z,9.45
2023-01-15T13:27:29.534Z,9.58
2023-01-15T13:30:21.485Z,9.57
2023-01-15T13:32:51.989Z,9.51
2023-01-15T13:35:39.601Z,9.20
2023-01-15T13:38:16.970Z,9.14
2023-01-15T13:40:50.420Z,9.27
2023-01-15T13:43:43.618Z,9.35
2023-01-15T13:46:13.669Z,9.26
2023-01-15T13:48:44.524Z,9.40
2023-01-15T13:51:39.196Z,9.43
2023-01-15T13:54:14.323Z,9.18
2023-01-15T13:56:42.044Z,9.29
2023-01-15T13:59:38.616Z,9.22
2023-01-15T14:02:25.745Z,9.23
2023-01-15T14:04:53.832Z,9.14
2023-01-15T14:07:31.008Z,9.02
2023-01-15T14:10:17.137Z,9.05
2023-01-15T14:13:02.816Z,9.12
2023-01-15T14:16:01.841Z,9.16
2023-01-15T14:19:08.143Z,9.11
2023-01-15T14:21:48.835Z,9.21
2023-01-15T14:24:34.703Z,9.15
2023-01-15T14:27:08.205Z,9.09
2023-01-15T14:29:38.228Z,8.82
2023-01-15T14:32:18.452Z,8.85
2023-01-15T14:34:54.955Z,8.83
2023-01-15T14:37:26.748Z,8.88
2023-01-15T14:39:58.806Z,8.86
2023-01-15T14:42:48.828Z,8.87
2023-01-15T14:45:50.024Z,8.79
2023-01-15T14:48:29.641Z,8.86
2023-01-15T14:51:12.691Z,8.80
2023-01-15T14:53:45.033Z,8.83
2023-01-15T14:56:19.663Z,8.79
2023-01-15T14:58:53.159Z,8.80
2023-01-15T15:01:38.484Z,8.67
2023-01-15T15:04:13.800Z,8.73
2023-01-15T15:06:47.705Z,8.95
2023-01-15T15:09:27.002Z,8.86
2023-01-15T15:12:13.543Z,8.90
2023-01-15T15:14:41.031Z,8.90
2023-01-15T15:17:22.083Z,8.96
2023-01-15T15:19:57.437Z,8.85
2023-01-15T15:22:28.783Z,9.02
2023-01-15T15:24:56.632Z,8.96
2023-01-15T15:27:24.437Z,8.91
2023-01-15T15:29:53.405Z,8.86
2023-01-15T15:32:22.448Z,8.73
2023-01-15T15:34:51.463Z,8.70
2023-01-15T15:37:27.371Z,8.65
2023-01-15T15:40:17.747Z,8.77
2023-01-15T15:43:54.686Z,8.71
2023-01-15T15:46:46.765Z,8.57
2023-01-15T15:49:14.571Z,8.51
2023-01-15T15:51:48.985Z,8.49
2023-01-15T15:54:21.495Z,8.60
2023-01-15T15:57:07.080Z,8.51
2023-01-15T15:59:39.135Z,8.54
2023-01-15T16:02:21.669Z,8.43
2023-01-15T16:04:53.869Z,8.41
2023-01-15T16:07:29.768Z,8.30
2023-01-15T16:09:59.747Z,8.30
2023-01-15T16:12:31.937Z,8.33
2023-01-15T16:14:59.790Z,8.42
2023-01-15T16:17:28.098Z,8.40
2023-01-15T16:19:56.755Z,8.42
2023-01-15T16:22:44.174Z,8.43
2023-01-15T16:25:26.132Z,8.50
2023-01-15T16:27:53.744Z,8.33
2023-01-15T16:30:21.079Z,8.27
2023-01-15T16:32:49.277Z,8.25
2023-01-15T16:35:20.307Z,8.15
2023-01-15T16:37:49.839Z,8.14
2023-01-15T16:40:28.001Z,8.12
2023-01-15T16:43:04.236Z,7.99
2023-01-15T16:45:32.135Z,7.98
2023-01-15T16:48:08.264Z,7.99
2023-01-15T16:50:37.685Z,7.96
2023-01-15T16:53:06.665Z,7.83
2023-01-15T16:55:33.667Z,7.89
2023-01-15T16:58:22.430Z,8.01
2023-01-15T17:00:55.538Z,7.96
2023-01-15T17:03:25.121Z,7.82
2023-01-15T17:05:56.202Z,7.88
2023-01-15T17:08:38.704Z,7.56
2023-01-15T17:11:15.926Z,7.36
2023-01-15T17:13:43.333Z,7.46
2023-01-15T17:16:13.157Z,7.56
2023-01-15T17:18:40.575Z,7.73
2023-01-15T17:21:14.339Z,7.78
2023-01-15T17:23:42.986Z,7.79
2023-01-15T17:26:21.890Z,7.76
2023-01-15T17:28:50.200Z,7.71
2023-01-15T17:31:34.156Z,7.77
2023-01-15T17:34:02.597Z,7.86
2023-01-15T17:36:30.552Z,7.85
2023-01-15T17:38:57.716Z,7.87
2023-01-15T17:41:24.959Z,7.86
2023-01-15T17:43:52.445Z,7.90
2023-01-15T17:46:19.624Z,7.81
2023-01-15T17:48:46.761Z,7.78
2023-01-15T17:51:15.670Z,7.63
2023-01-15T17:53:43.144Z,7.55
2023-01-15T17:56:28.718Z,7.58
2023-01-15T17:59:14.140Z,7.60
2023-01-15T18:02:02.684Z,7.60
2023-01-15T18:04:52.187Z,7.66
2023-01-15T18:07:21.712Z,7.64
2023-01-15T18:09:50.409Z,7.73
2023-01-15T18:12:17.530Z,7.88
2023-01-15T18:14:44.744Z,7.92
2023-01-15T18:17:12.188Z,7.94
2023-01-15T18:19:39.340Z,7.94
2023-01-15T18:22:06.464Z,8.04
2023-01-15T18:24:33.914Z,7.85
2023-01-15T18:27:00.987Z,7.85
2023-01-15T18:29:28.256Z,7.71
2023-01-15T18:31:55.658Z,7.80
2023-01-15T18:34:22.832Z,7.75
2023-01-15T18:36:50.041Z,7.74
2023-01-15T18:39:17.530Z,7.70
2023-01-15T18:41:44.649Z,7.57
2023-01-15T18:44:32.964Z,7.59
2023-01-15T18:47:12.630Z,7.48
2023-01-15T18:49:40.945Z,7.31
2023-01-15T18:52:28.202Z,7.25
2023-01-15T18:54:55.414Z,7.41
2023-01-15T18:57:23.179Z,7.22
2023-01-15T18:59:50.668Z,7.25
2023-01-15T19:02:19.314Z,7.12
2023-01-15T19:04:47.864Z,7.05
2023-01-15T19:07:15.799Z,7.06
2023-01-15T19:09:42.887Z,7.01
2023-01-15T19:12:10.548Z,7.11
2023-01-15T19:14:55.905Z,7.16
2023-01-15T19:17:43.717Z,7.22
2023-01-15T19:20:16.451Z,7.27
2023-01-15T19:22:59.197Z,7.20
2023-01-15T19:25:31.719Z,7.01
2023-01-15T19:27:59.706Z,6.96
2023-01-15T19:30:27.795Z,6.94
2023-01-15T19:32:55.721Z,6.93
2023-01-15T19:35:23.104Z,6.88
2023-01-15T19:37:50.257Z,6.76
2023-01-15T19:40:22.049Z,6.76
2023-01-15T19:43:09.538Z,6.76
2023-01-15T19:46:00.509Z,6.91
2023-01-15T19:49:00.087Z,6.81
2023-01-15T19:51:47.125Z,6.77
2023-01-15T19:54:14.953Z,6.78
2023-01-15T19:56:42.492Z,6.75
2023-01-15T19:59:09.542Z,6.70
2023-01-15T20:01:37.157Z,6.60
2023-01-15T20:04:04.765Z,6.63
2023-01-15T20:06:31.924Z,6.65
2023-01-15T20:08:59.141Z,6.64
2023-01-15T20:11:46.509Z,6.51
2023-01-15T20:14:13.811Z,6.50
2023-01-15T20:16:41.352Z,6.44
2023-01-15T20:19:08.469Z,6.46
2023-01-15T20:21:35.557Z,6.62
2023-01-15T20:24:05.310Z,6.75
2023-01-15T20:26:32.383Z,6.75
2023-01-15T20:28:59.464Z,6.65
2023-01-15T20:31:27.645Z,6.54
2023-01-15T20:33:57.727Z,6.48
2023-01-15T20:36:24.767Z,6.55
2023-01-15T20:38:52.163Z,6.66
2023-01-15T20:41:37.479Z,6.67
2023-01-15T20:44:23.912Z,6.57
2023-01-15T20:46:51.540Z,6.58
2023-01-15T20:49:25.173Z,6.48
2023-01-15T20:51:52.886Z,6.44
2023-01-15T20:54:21.448Z,6.45
2023-01-15T20:56:48.518Z,6.39
2023-01-15T20:59:15.575Z,6.41
2023-01-15T21:01:43.150Z,6.42
2023-01-15T21:04:10.695Z,6.37
2023-01-15T21:06:37.870Z,6.33
2023-01-15T21:09:06.054Z,6.34
2023-01-15T21:11:33.183Z,6.34
2023-01-15T21:14:00.230Z,6.34
2023-01-15T21:16:27.706Z,6.37
2023-01-15T21:18:54.826Z,6.44
2023-01-15T21:21:22.696Z,6.41
2023-01-15T21:23:50.387Z,6.35
2023-01-15T21:26:17.687Z,6.37
2023-01-15T21:28:44.853Z,6.32
2023-01-15T21:31:14.298Z,6.25
2023-01-15T21:33:41.647Z,6.14
2023-01-15T21:36:11.374Z,6.17
2023-01-15T21:38:39.195Z,6.20
2023-01-15T21:41:12.297Z,6.20
2023-01-15T21:43:59.055Z,6.16
2023-01-15T21:46:29.269Z,6.25
2023-01-15T21:48:58.467Z,6.29
2023-01-15T21:51:26.785Z,6.34
2023-01-15T21:53:54.253Z,6.29
2023-01-15T21:56:21.726Z,6.17
2023-01-15T21:58:48.794Z,6.13
2023-01-15T22:01:18.035Z,6.06
2023-01-15T22:03:46.116Z,5.99
2023-01-15T22:06:13.318Z,5.92
2023-01-15T22:08:40.616Z,5.99
2023-01-15T22:11:09.870Z,5.96
2023-01-15T22:13:38.071Z,5.95
2023-01-15T22:16:05.457Z,5.89
2023-01-15T22:18:33.877Z,5.63
2023-01-15T22:21:02.146Z,5.58
2023-01-15T22:23:29.406Z,5.51
2023-01-15T22:25:56.796Z,5.48
2023-01-15T22:28:23.952Z,5.42
2023-01-15T22:30:51.132Z,5.44
2023-01-15T22:33:18.623Z,5.34
2023-01-15T22:35:56.244Z,5.17
2023-01-15T22:38:23.674Z,5.11
2023-01-15T22:40:50.892Z,4.91
2023-01-15T22:43:18.223Z,4.93
2023-01-15T22:45:45.619Z,4.94
2023-01-15T22:48:12.817Z,4.83
2023-01-15T22:50:40.077Z,4.84
2023-01-15T22:53:07.759Z,4.89
2023-01-15T22:55:34.889Z,4.94
2023-01-15T22:58:02.102Z,4.93
2023-01-15T23:00:29.466Z,5.04
2023-01-15T23:03:04.669Z,5.08
2023-01-15T23:05:37.121Z,5.14
2023-01-15T23:08:04.356Z,5.19
2023-01-15T23:10:31.728Z,5.22
2023-01-15T23:12:58.809Z,5.25
2023-01-15T23:15:25.929Z,5.23
2023-01-15T23:17:53.249Z,5.24
2023-01-15T23:20:20.371Z,5.28
2023-01-15T23:22:47.444Z,5.51
2023-01-15T23:25:14.862Z,5.59
2023-01-15T23:27:41.957Z,5.46
2023-01-15T23:30:09.792Z,5.41
2023-01-15T23:32:39.614Z,5.41
2023-01-15T23:35:07.876Z,5.36
2023-01-15T23:37:34.954Z,5.39
2023-01-15T23:40:02.367Z,5.44
2023-01-15T23:42:48.147Z,5.47
2023-01-15T23:45:33.842Z,5.55
2023-01-15T23:48:00.960Z,5.47
2023-01-15T23:50:28.289Z,5.45
2023-01-15T23:52:55.369Z,5.50
2023-01-15T23:55:22.496Z,5.44
2023-01-15T23:57:49.858Z,5.52
